Terminal Aerodrome Forecast
Issued by NWS

Home | Current Version | Previous Version | Text Only | Print | Product List | Glossary On
Versions: 1 2 3 4 5 6 7 8 9 10 11 12 13 14 15
832
FTAK31 PAJN 221737
TAFAWG
TAF
PAWG 221737Z 2218/2318 08010KT P6SM -SHRA FEW010 BKN035 OVC050
      TEMPO 2218/2222 5SM -SHRA BR FEW007 SCT012 OVC025
     FM222200 12006KT P6SM -SHRA SCT025 OVC035
     FM230600 13004KT P6SM VCSH OVC060
     FM231100 VRB03KT P6SM FEW006 BKN050
      AMD LTD TO CLD VIS AND WIND 2306/2315=

USA.gov is the U.S. government's official web portal to all federal, state and local government web resources and services.